Tilford, South Dakota
Current Conditions -  °F | °C
As of 1:58 PM on Friday 31 Oct 2014 (Local Time) from KRCA Reporting Station
Clear Clear  
Wind Chill: 39°   Ceiling: Unl
Heat Index: 48°   Visibility: 10mi
Dew Point: 31°   Wind: 30mph
Humidity: 52%   Direction: 180°S
Pressure: 30.13"   Gusts: 39mph
Location:  44.2544°N, 103.292°W
Report Text: KRCA 311958Z AUTO 18026G34KT 10SM CLR 09/M01 A3013 RMK AO2 PK WND 17034/51 PRESFR SLP223 T00871007 $
Loading
Personal Weather Stations






























Interactive Weather Map New forecast layout! Learn more

10-Day Weather Forecast

Advertisements
Track Severe Weather on mobile